sensor_id;sensor_type;location;lat;lon;timestamp;pressure;altitude;pressure_sealevel;temperature;humidity
57234;BME280;43090;52.604;13.318;2023-02-23T00:01:55;100876.22;;;4.19;100.00
57234;BME280;43090;52.604;13.318;2023-02-23T00:04:23;100868.47;;;4.14;100.00
57234;BME280;43090;52.604;13.318;2023-02-23T00:06:51;100869.56;;;4.09;100.00
57234;BME280;43090;52.604;13.318;2023-02-23T00:09:27;100866.50;;;4.20;100.00
57234;BME280;43090;52.604;13.318;2023-02-23T00:12:01;100873.00;;;4.33;100.00
57234;BME280;43090;52.604;13.318;2023-02-23T00:14:36;100879.75;;;4.40;99.38
57234;BME280;43090;52.604;13.318;2023-02-23T00:17:05;100868.69;;;4.30;99.16
57234;BME280;43090;52.604;13.318;2023-02-23T00:19:39;100877.78;;;4.25;100.00
57234;BME280;43090;52.604;13.318;2023-02-23T00:22:11;100864.19;;;4.53;99.85
57234;BME280;43090;52.604;13.318;2023-02-23T00:24:38;100872.72;;;4.39;99.70
57234;BME280;43090;52.604;13.318;2023-02-23T00:27:08;100860.91;;;4.26;100.00
57234;BME280;43090;52.604;13.318;2023-02-23T00:29:34;100868.94;;;4.24;100.00
57234;BME280;43090;52.604;13.318;2023-02-23T00:32:05;100861.91;;;4.23;100.00
57234;BME280;43090;52.604;13.318;2023-02-23T00:34:31;100851.59;;;4.17;98.58
57234;BME280;43090;52.604;13.318;2023-02-23T00:36:58;100849.88;;;4.16;100.00
57234;BME280;43090;52.604;13.318;2023-02-23T00:39:25;100852.44;;;4.17;100.00
57234;BME280;43090;52.604;13.318;2023-02-23T00:41:54;100854.91;;;4.22;99.04
57234;BME280;43090;52.604;13.318;2023-02-23T00:44:22;100858.22;;;4.27;98.68
57234;BME280;43090;52.604;13.318;2023-02-23T00:47:01;100854.50;;;4.31;98.91
57234;BME280;43090;52.604;13.318;2023-02-23T00:49:28;100847.34;;;4.33;99.27
57234;BME280;43090;52.604;13.318;2023-02-23T00:51:55;100842.47;;;4.02;100.00
57234;BME280;43090;52.604;13.318;2023-02-23T00:54:22;100853.97;;;4.03;100.00
57234;BME280;43090;52.604;13.318;2023-02-23T00:56:49;100838.03;;;4.25;99.24
57234;BME280;43090;52.604;13.318;2023-02-23T00:59:20;100844.81;;;4.10;100.00
57234;BME280;43090;52.604;13.318;2023-02-23T01:02:08;100861.00;;;4.24;99.22
57234;BME280;43090;52.604;13.318;2023-02-23T01:04:35;100857.47;;;4.03;98.83
57234;BME280;43090;52.604;13.318;2023-02-23T01:07:01;100855.91;;;4.20;99.44
57234;BME280;43090;52.604;13.318;2023-02-23T01:09:34;100860.84;;;4.07;99.63
57234;BME280;43090;52.604;13.318;2023-02-23T01:12:04;100855.56;;;4.07;100.00
57234;BME280;43090;52.604;13.318;2023-02-23T01:14:37;100847.69;;;4.05;99.27
57234;BME280;43090;52.604;13.318;2023-02-23T01:17:07;100846.41;;;4.14;100.00
57234;BME280;43090;52.604;13.318;2023-02-23T01:19:38;100848.38;;;4.09;100.00
57234;BME280;43090;52.604;13.318;2023-02-23T01:22:39;100842.47;;;4.02;100.00
57234;BME280;43090;52.604;13.318;2023-02-23T01:25:08;100849.06;;;4.14;99.70
57234;BME280;43090;52.604;13.318;2023-02-23T01:27:47;100840.81;;;3.99;100.00
57234;BME280;43090;52.604;13.318;2023-02-23T01:30:14;100838.66;;;4.09;100.00
57234;BME280;43090;52.604;13.318;2023-02-23T01:32:53;100836.78;;;4.11;100.00
57234;BME280;43090;52.604;13.318;2023-02-23T01:35:24;100834.13;;;3.91;100.00
57234;BME280;43090;52.604;13.318;2023-02-23T01:37:50;100835.31;;;3.83;100.00
57234;BME280;43090;52.604;13.318;2023-02-23T01:40:21;100827.03;;;3.91;100.00
57234;BME280;43090;52.604;13.318;2023-02-23T01:43:19;100825.13;;;3.95;100.00
57234;BME280;43090;52.604;13.318;2023-02-23T01:48:43;100828.34;;;3.81;100.00
57234;BME280;43090;52.604;13.318;2023-02-23T01:51:14;100817.13;;;3.76;100.00
57234;BME280;43090;52.604;13.318;2023-02-23T01:53:47;100818.69;;;3.80;100.00
57234;BME280;43090;52.604;13.318;2023-02-23T01:56:19;100822.59;;;3.71;100.00
57234;BME280;43090;52.604;13.318;2023-02-23T01:58:47;100817.41;;;3.68;100.00
57234;BME280;43090;52.604;13.318;2023-02-23T02:01:17;100817.88;;;3.78;100.00
57234;BME280;43090;52.604;13.318;2023-02-23T02:06:20;100820.91;;;3.69;100.00
57234;BME280;43090;52.604;13.318;2023-02-23T02:08:51;100815.88;;;3.62;100.00
57234;BME280;43090;52.604;13.318;2023-02-23T02:11:23;100809.41;;;3.70;100.00
57234;BME280;43090;52.604;13.318;2023-02-23T02:35:36;100793.28;;;3.76;100.00
57234;BME280;43090;52.604;13.318;2023-02-23T02:38:21;100787.78;;;3.58;100.00
57234;BME280;43090;52.604;13.318;2023-02-23T02:41:00;100784.66;;;3.71;100.00
57234;BME280;43090;52.604;13.318;2023-02-23T02:46:28;100782.94;;;3.70;100.00
57234;BME280;43090;52.604;13.318;2023-02-23T02:49:13;100789.38;;;3.62;100.00
57234;BME280;43090;52.604;13.318;2023-02-23T02:52:00;100782.13;;;3.67;100.00
57234;BME280;43090;52.604;13.318;2023-02-23T02:54:36;100788.06;;;3.52;100.00
57234;BME280;43090;52.604;13.318;2023-02-23T02:57:07;100783.06;;;3.66;100.00
57234;BME280;43090;52.604;13.318;2023-02-23T02:59:47;100770.59;;;3.69;100.00
57234;BME280;43090;52.604;13.318;2023-02-23T03:02:53;100767.88;;;3.70;100.00
57234;BME280;43090;52.604;13.318;2023-02-23T03:05:47;100771.19;;;3.55;100.00
57234;BME280;43090;52.604;13.318;2023-02-23T03:08:40;100758.34;;;3.66;100.00
57234;BME280;43090;52.604;13.318;2023-02-23T03:11:45;100756.31;;;3.52;100.00
57234;BME280;43090;52.604;13.318;2023-02-23T03:14:45;100758.94;;;3.52;100.00
57234;BME280;43090;52.604;13.318;2023-02-23T03:17:47;100766.81;;;3.54;100.00
57234;BME280;43090;52.604;13.318;2023-02-23T03:20:40;100754.50;;;3.53;100.00
57234;BME280;43090;52.604;13.318;2023-02-23T03:23:31;100763.13;;;3.36;100.00
57234;BME280;43090;52.604;13.318;2023-02-23T03:26:34;100759.94;;;3.49;100.00
57234;BME280;43090;52.604;13.318;2023-02-23T03:29:31;100756.25;;;3.31;100.00
57234;BME280;43090;52.604;13.318;2023-02-23T03:32:29;100747.25;;;3.36;100.00
57234;BME280;43090;52.604;13.318;2023-02-23T03:41:28;100759.38;;;3.41;100.00
57234;BME280;43090;52.604;13.318;2023-02-23T03:44:38;100760.03;;;3.46;100.00
57234;BME280;43090;52.604;13.318;2023-02-23T03:47:23;100759.41;;;3.19;100.00
57234;BME280;43090;52.604;13.318;2023-02-23T03:50:20;100758.22;;;3.26;100.00
57234;BME280;43090;52.604;13.318;2023-02-23T03:53:10;100750.47;;;3.22;100.00
57234;BME280;43090;52.604;13.318;2023-02-23T03:56:04;100748.06;;;3.15;100.00
57234;BME280;43090;52.604;13.318;2023-02-23T03:58:51;100753.78;;;3.05;100.00
57234;BME280;43090;52.604;13.318;2023-02-23T04:01:38;100744.13;;;3.26;100.00
57234;BME280;43090;52.604;13.318;2023-02-23T04:04:24;100749.88;;;3.15;100.00
57234;BME280;43090;52.604;13.318;2023-02-23T04:07:12;100749.03;;;3.13;100.00
57234;BME280;43090;52.604;13.318;2023-02-23T04:10:03;100743.88;;;3.10;100.00
57234;BME280;43090;52.604;13.318;2023-02-23T04:12:55;100751.38;;;2.98;100.00
57234;BME280;43090;52.604;13.318;2023-02-23T04:18:10;100738.50;;;2.89;100.00
57234;BME280;43090;52.604;13.318;2023-02-23T04:20:37;100738.63;;;2.86;100.00
57234;BME280;43090;52.604;13.318;2023-02-23T04:23:04;100739.59;;;3.07;100.00
57234;BME280;43090;52.604;13.318;2023-02-23T04:25:31;100740.13;;;2.70;100.00
57234;BME280;43090;52.604;13.318;2023-02-23T04:27:58;100732.84;;;2.76;100.00
57234;BME280;43090;52.604;13.318;2023-02-23T04:30:25;100741.44;;;2.81;100.00
57234;BME280;43090;52.604;13.318;2023-02-23T04:32:54;100739.25;;;2.93;100.00
57234;BME280;43090;52.604;13.318;2023-02-23T04:35:20;100731.25;;;2.94;100.00
57234;BME280;43090;52.604;13.318;2023-02-23T04:37:48;100733.22;;;2.89;100.00
57234;BME280;43090;52.604;13.318;2023-02-23T04:40:19;100731.50;;;2.88;100.00
57234;BME280;43090;52.604;13.318;2023-02-23T04:42:52;100732.38;;;2.89;100.00
57234;BME280;43090;52.604;13.318;2023-02-23T04:45:22;100727.16;;;2.87;100.00
57234;BME280;43090;52.604;13.318;2023-02-23T04:47:57;100725.22;;;2.91;100.00
57234;BME280;43090;52.604;13.318;2023-02-23T04:50:27;100720.38;;;2.80;100.00
57234;BME280;43090;52.604;13.318;2023-02-23T04:52:56;100726.13;;;2.67;100.00
57234;BME280;43090;52.604;13.318;2023-02-23T04:55:28;100724.97;;;2.75;100.00
57234;BME280;43090;52.604;13.318;2023-02-23T04:58:31;100716.13;;;2.52;100.00
57234;BME280;43090;52.604;13.318;2023-02-23T05:01:02;100716.53;;;2.65;100.00
57234;BME280;43090;52.604;13.318;2023-02-23T05:03:32;100711.41;;;2.60;100.00
57234;BME280;43090;52.604;13.318;2023-02-23T05:06:00;100715.91;;;2.58;100.00
57234;BME280;43090;52.604;13.318;2023-02-23T05:08:27;100707.84;;;2.61;100.00
57234;BME280;43090;52.604;13.318;2023-02-23T05:10:54;100709.38;;;2.69;100.00
57234;BME280;43090;52.604;13.318;2023-02-23T05:13:21;100705.53;;;2.76;100.00
57234;BME280;43090;52.604;13.318;2023-02-23T05:15:47;100707.44;;;2.72;100.00
57234;BME280;43090;52.604;13.318;2023-02-23T05:18:16;100712.03;;;2.67;100.00
57234;BME280;43090;52.604;13.318;2023-02-23T05:20:43;100714.00;;;2.62;100.00
57234;BME280;43090;52.604;13.318;2023-02-23T05:23:10;100708.31;;;2.73;100.00
57234;BME280;43090;52.604;13.318;2023-02-23T05:25:37;100705.16;;;2.63;100.00
57234;BME280;43090;52.604;13.318;2023-02-23T05:28:04;100715.50;;;2.45;100.00
57234;BME280;43090;52.604;13.318;2023-02-23T05:30:33;100707.28;;;2.53;100.00
57234;BME280;43090;52.604;13.318;2023-02-23T05:33:01;100707.81;;;2.39;100.00
57234;BME280;43090;52.604;13.318;2023-02-23T05:35:33;100709.59;;;2.39;100.00
57234;BME280;43090;52.604;13.318;2023-02-23T05:38:17;100713.63;;;2.49;100.00
57234;BME280;43090;52.604;13.318;2023-02-23T05:40:45;100712.66;;;2.52;100.00
57234;BME280;43090;52.604;13.318;2023-02-23T05:43:11;100712.03;;;2.45;100.00
57234;BME280;43090;52.604;13.318;2023-02-23T05:45:39;100725.03;;;2.49;100.00
57234;BME280;43090;52.604;13.318;2023-02-23T05:48:07;100717.97;;;2.50;100.00
57234;BME280;43090;52.604;13.318;2023-02-23T05:50:36;100723.16;;;2.29;100.00
57234;BME280;43090;52.604;13.318;2023-02-23T05:53:02;100720.28;;;2.36;100.00
57234;BME280;43090;52.604;13.318;2023-02-23T05:55:29;100728.59;;;2.48;100.00
57234;BME280;43090;52.604;13.318;2023-02-23T05:57:56;100731.63;;;2.14;100.00
57234;BME280;43090;52.604;13.318;2023-02-23T06:00:23;100729.81;;;2.16;100.00
57234;BME280;43090;52.604;13.318;2023-02-23T06:02:50;100733.63;;;2.07;100.00
57234;BME280;43090;52.604;13.318;2023-02-23T06:05:21;100737.16;;;2.08;100.00
57234;BME280;43090;52.604;13.318;2023-02-23T06:11:22;100732.75;;;2.32;100.00
57234;BME280;43090;52.604;13.318;2023-02-23T06:13:51;100740.28;;;2.43;100.00
57234;BME280;43090;52.604;13.318;2023-02-23T06:16:18;100733.03;;;2.24;100.00
57234;BME280;43090;52.604;13.318;2023-02-23T06:18:46;100734.69;;;2.27;100.00
57234;BME280;43090;52.604;13.318;2023-02-23T06:21:15;100739.56;;;2.14;100.00
57234;BME280;43090;52.604;13.318;2023-02-23T06:23:42;100746.09;;;2.29;100.00
57234;BME280;43090;52.604;13.318;2023-02-23T06:26:23;100742.75;;;2.24;100.00
57234;BME280;43090;52.604;13.318;2023-02-23T06:28:54;100741.63;;;2.06;100.00
57234;BME280;43090;52.604;13.318;2023-02-23T06:31:26;100739.19;;;1.99;100.00
57234;BME280;43090;52.604;13.318;2023-02-23T06:34:00;100739.19;;;1.99;100.00
57234;BME280;43090;52.604;13.318;2023-02-23T06:36:47;100740.75;;;2.05;100.00
57234;BME280;43090;52.604;13.318;2023-02-23T06:39:19;100738.00;;;2.08;100.00
57234;BME280;43090;52.604;13.318;2023-02-23T06:41:54;100746.75;;;2.34;100.00
57234;BME280;43090;52.604;13.318;2023-02-23T06:45:04;100745.56;;;2.43;100.00
57234;BME280;43090;52.604;13.318;2023-02-23T06:51:03;100750.63;;;2.49;100.00
57234;BME280;43090;52.604;13.318;2023-02-23T06:53:58;100751.81;;;2.40;100.00
57234;BME280;43090;52.604;13.318;2023-02-23T06:56:30;100757.09;;;2.40;100.00
57234;BME280;43090;52.604;13.318;2023-02-23T07:13:58;100757.47;;;3.00;100.00
57234;BME280;43090;52.604;13.318;2023-02-23T07:41:19;100751.22;;;3.89;100.00
57234;BME280;43090;52.604;13.318;2023-02-23T08:21:37;100743.06;;;4.92;95.69
57234;BME280;43090;52.604;13.318;2023-02-23T08:24:21;100738.19;;;5.02;94.08
57234;BME280;43090;52.604;13.318;2023-02-23T08:27:34;100744.91;;;5.09;94.47
57234;BME280;43090;52.604;13.318;2023-02-23T08:41:02;100741.00;;;5.35;93.97
57234;BME280;43090;52.604;13.318;2023-02-23T08:50:23;100732.66;;;5.78;91.63
57234;BME280;43090;52.604;13.318;2023-02-23T09:00:39;100744.69;;;6.20;89.13
57234;BME280;43090;52.604;13.318;2023-02-23T09:07:16;100743.88;;;6.02;90.35
57234;BME280;43090;52.604;13.318;2023-02-23T09:10:20;100744.53;;;6.23;89.18
57234;BME280;43090;52.604;13.318;2023-02-23T09:13:25;100742.75;;;6.06;88.78
57234;BME280;43090;52.604;13.318;2023-02-23T09:16:01;100737.44;;;6.06;90.81
57234;BME280;43090;52.604;13.318;2023-02-23T09:18:32;100740.19;;;6.05;91.91
57234;BME280;43090;52.604;13.318;2023-02-23T09:21:09;100727.34;;;6.13;92.46
57234;BME280;43090;52.604;13.318;2023-02-23T09:26:59;100733.25;;;6.36;91.44
57234;BME280;43090;52.604;13.318;2023-02-23T09:29:34;100731.25;;;6.06;91.07
57234;BME280;43090;52.604;13.318;2023-02-23T09:32:10;100731.72;;;6.14;90.63
57234;BME280;43090;52.604;13.318;2023-02-23T09:34:49;100739.03;;;6.26;91.14
57234;BME280;43090;52.604;13.318;2023-02-23T09:37:26;100735.28;;;6.30;89.98
57234;BME280;43090;52.604;13.318;2023-02-23T09:39:54;100731.44;;;6.36;89.18
57234;BME280;43090;52.604;13.318;2023-02-23T09:42:36;100729.06;;;6.47;91.00
57234;BME280;43090;52.604;13.318;2023-02-23T09:48:34;100734.63;;;6.59;89.46
57234;BME280;43090;52.604;13.318;2023-02-23T09:51:05;100737.47;;;6.56;90.23
57234;BME280;43090;52.604;13.318;2023-02-23T09:53:43;100730.69;;;6.50;90.84
57234;BME280;43090;52.604;13.318;2023-02-23T09:56:45;100737.06;;;6.79;90.00
57234;BME280;43090;52.604;13.318;2023-02-23T09:59:19;100740.50;;;6.32;89.31
57234;BME280;43090;52.604;13.318;2023-02-23T10:04:55;100736.72;;;6.70;89.21
57234;BME280;43090;52.604;13.318;2023-02-23T10:09:57;100738.38;;;7.20;87.70
57234;BME280;43090;52.604;13.318;2023-02-23T10:12:40;100738.09;;;7.09;86.96
57234;BME280;43090;52.604;13.318;2023-02-23T10:20:44;100743.72;;;7.50;88.56
57234;BME280;43090;52.604;13.318;2023-02-23T10:23:14;100741.47;;;7.59;86.48
57234;BME280;43090;52.604;13.318;2023-02-23T10:25:43;100739.78;;;7.42;91.14
57234;BME280;43090;52.604;13.318;2023-02-23T10:28:15;100737.28;;;7.55;90.42
57234;BME280;43090;52.604;13.318;2023-02-23T10:30:43;100736.19;;;7.73;89.88
57234;BME280;43090;52.604;13.318;2023-02-23T10:33:13;100734.25;;;7.91;87.50
57234;BME280;43090;52.604;13.318;2023-02-23T10:35:57;100734.31;;;7.90;87.69
57234;BME280;43090;52.604;13.318;2023-02-23T10:38:41;100736.44;;;8.13;87.20
57234;BME280;43090;52.604;13.318;2023-02-23T10:41:07;100736.44;;;8.13;87.93
57234;BME280;43090;52.604;13.318;2023-02-23T10:43:35;100730.63;;;8.21;89.25
57234;BME280;43090;52.604;13.318;2023-02-23T10:46:04;100733.63;;;8.31;86.87
57234;BME280;43090;52.604;13.318;2023-02-23T10:48:33;100729.59;;;8.38;87.28
57234;BME280;43090;52.604;13.318;2023-02-23T10:51:05;100726.25;;;8.34;87.28
57234;BME280;43090;52.604;13.318;2023-02-23T10:53:33;100728.75;;;8.66;85.18
57234;BME280;43090;52.604;13.318;2023-02-23T10:58:30;100726.56;;;8.73;86.58
57234;BME280;43090;52.604;13.318;2023-02-23T11:01:07;100727.75;;;8.55;86.69
57234;BME280;43090;52.604;13.318;2023-02-23T11:07:04;100725.28;;;8.93;82.89
57234;BME280;43090;52.604;13.318;2023-02-23T11:09:37;100722.31;;;8.56;86.95
57234;BME280;43090;52.604;13.318;2023-02-23T11:16:25;100710.03;;;8.81;83.27
57234;BME280;43090;52.604;13.318;2023-02-23T11:18:59;100708.16;;;8.83;85.34
57234;BME280;43090;52.604;13.318;2023-02-23T11:21:31;100697.78;;;9.06;83.66
57234;BME280;43090;52.604;13.318;2023-02-23T11:24:03;100706.53;;;9.22;82.10
57234;BME280;43090;52.604;13.318;2023-02-23T11:26:37;100698.84;;;9.30;83.06
57234;BME280;43090;52.604;13.318;2023-02-23T11:31:44;100702.72;;;9.12;83.03
57234;BME280;43090;52.604;13.318;2023-02-23T11:34:30;100690.50;;;9.22;83.66
57234;BME280;43090;52.604;13.318;2023-02-23T11:36:59;100692.06;;;9.52;83.13
57234;BME280;43090;52.604;13.318;2023-02-23T11:39:26;100692.88;;;9.12;84.59
57234;BME280;43090;52.604;13.318;2023-02-23T11:42:05;100684.38;;;9.20;85.55
57234;BME280;43090;52.604;13.318;2023-02-23T11:44:38;100682.66;;;9.19;83.66
57234;BME280;43090;52.604;13.318;2023-02-23T11:47:04;100667.34;;;9.36;83.40
57234;BME280;43090;52.604;13.318;2023-02-23T11:49:32;100671.97;;;9.72;84.29
57234;BME280;43090;52.604;13.318;2023-02-23T11:52:01;100677.38;;;9.32;82.58
57234;BME280;43090;52.604;13.318;2023-02-23T11:54:33;100679.34;;;9.56;83.04
57234;BME280;43090;52.604;13.318;2023-02-23T11:57:04;100665.84;;;9.44;83.95
57234;BME280;43090;52.604;13.318;2023-02-23T11:59:37;100669.53;;;9.69;81.28
57234;BME280;43090;52.604;13.318;2023-02-23T12:04:45;100662.25;;;9.58;85.51
57234;BME280;43090;52.604;13.318;2023-02-23T12:07:33;100656.16;;;9.82;85.06
57234;BME280;43090;52.604;13.318;2023-02-23T12:10:26;100662.03;;;9.74;83.21
57234;BME280;43090;52.604;13.318;2023-02-23T12:12:57;100657.75;;;9.97;81.17
57234;BME280;43090;52.604;13.318;2023-02-23T12:15:31;100650.69;;;9.71;79.96
57234;BME280;43090;52.604;13.318;2023-02-23T12:18:47;100653.06;;;10.01;82.05
57234;BME280;43090;52.604;13.318;2023-02-23T12:20:47;100648.75;;;10.24;82.44
57234;BME280;43090;52.604;13.318;2023-02-23T12:23:19;100656.78;;;9.98;79.68
57234;BME280;43090;52.604;13.318;2023-02-23T12:25:57;100647.94;;;9.98;83.46
57234;BME280;43090;52.604;13.318;2023-02-23T12:33:33;100646.13;;;9.73;81.37
57234;BME280;43090;52.604;13.318;2023-02-23T12:41:03;100641.19;;;9.92;84.25
57234;BME280;43090;52.604;13.318;2023-02-23T12:43:34;100641.72;;;9.97;86.08
57234;BME280;43090;52.604;13.318;2023-02-23T12:46:23;100641.41;;;10.15;86.24
57234;BME280;43090;52.604;13.318;2023-02-23T12:52:32;100633.13;;;10.18;84.54
57234;BME280;43090;52.604;13.318;2023-02-23T12:54:30;100638.72;;;10.15;87.12
57234;BME280;43090;52.604;13.318;2023-02-23T13:02:43;100627.81;;;10.05;88.95
57234;BME280;43090;52.604;13.318;2023-02-23T13:05:02;100636.47;;;10.09;88.77
57234;BME280;43090;52.604;13.318;2023-02-23T13:13:10;100624.34;;;10.16;87.45
57234;BME280;43090;52.604;13.318;2023-02-23T13:15:50;100617.56;;;9.86;87.58
57234;BME280;43090;52.604;13.318;2023-02-23T13:18:32;100613.81;;;9.89;88.83
57234;BME280;43090;52.604;13.318;2023-02-23T13:21:06;100613.69;;;9.90;88.70
57234;BME280;43090;52.604;13.318;2023-02-23T13:26:25;100612.84;;;9.64;90.57
57234;BME280;43090;52.604;13.318;2023-02-23T13:28:55;100616.59;;;9.87;91.39
57234;BME280;43090;52.604;13.318;2023-02-23T13:31:25;100619.69;;;9.94;89.51
57234;BME280;43090;52.604;13.318;2023-02-23T13:33:54;100616.91;;;9.70;91.54
57234;BME280;43090;52.604;13.318;2023-02-23T13:36:21;100622.06;;;9.86;91.02
57234;BME280;43090;52.604;13.318;2023-02-23T13:41:36;100619.91;;;9.78;90.57
57234;BME280;43090;52.604;13.318;2023-02-23T13:46:47;100623.31;;;9.54;94.28
57234;BME280;43090;52.604;13.318;2023-02-23T13:55:35;100625.19;;;9.39;93.44
57234;BME280;43090;52.604;13.318;2023-02-23T13:58:15;100629.41;;;9.43;90.77
57234;BME280;43090;52.604;13.318;2023-02-23T14:00:42;100627.44;;;9.32;94.52
57234;BME280;43090;52.604;13.318;2023-02-23T14:03:19;100632.28;;;9.53;92.53
57234;BME280;43090;52.604;13.318;2023-02-23T14:05:48;100634.22;;;9.38;91.36
57234;BME280;43090;52.604;13.318;2023-02-23T14:08:29;100636.06;;;9.23;93.51
57234;BME280;43090;52.604;13.318;2023-02-23T14:10:57;100636.78;;;9.40;96.04
57234;BME280;43090;52.604;13.318;2023-02-23T14:16:19;100631.22;;;9.43;93.17
57234;BME280;43090;52.604;13.318;2023-02-23T14:21:34;100635.75;;;9.15;93.63
57234;BME280;43090;52.604;13.318;2023-02-23T14:24:04;100635.47;;;9.32;95.07
57234;BME280;43090;52.604;13.318;2023-02-23T14:26:42;100639.13;;;9.31;96.08
57234;BME280;43090;52.604;13.318;2023-02-23T14:29:10;100632.50;;;9.50;94.93
57234;BME280;43090;52.604;13.318;2023-02-23T14:31:59;100634.84;;;9.42;96.10
57234;BME280;43090;52.604;13.318;2023-02-23T14:35:34;100629.19;;;9.46;96.26
57234;BME280;43090;52.604;13.318;2023-02-23T14:37:15;100633.41;;;9.23;97.80
57234;BME280;43090;52.604;13.318;2023-02-23T14:39:42;100637.56;;;9.27;98.44
57234;BME280;43090;52.604;13.318;2023-02-23T14:42:13;100630.09;;;9.32;98.21
57234;BME280;43090;52.604;13.318;2023-02-23T14:44:52;100628.09;;;9.36;97.00
57234;BME280;43090;52.604;13.318;2023-02-23T14:47:25;100629.22;;;9.19;98.99
57234;BME280;43090;52.604;13.318;2023-02-23T14:49:56;100631.50;;;9.25;99.80
57234;BME280;43090;52.604;13.318;2023-02-23T14:52:32;100629.22;;;9.06;100.00
57234;BME280;43090;52.604;13.318;2023-02-23T14:57:36;100629.84;;;9.10;100.00
57234;BME280;43090;52.604;13.318;2023-02-23T15:00:11;100620.47;;;9.17;100.00
57234;BME280;43090;52.604;13.318;2023-02-23T15:02:40;100621.09;;;9.21;99.62
57234;BME280;43090;52.604;13.318;2023-02-23T15:05:20;100621.09;;;9.08;100.00
57234;BME280;43090;52.604;13.318;2023-02-23T15:07:48;100621.38;;;9.03;100.00
57234;BME280;43090;52.604;13.318;2023-02-23T15:10:19;100618.44;;;9.08;100.00
57234;BME280;43090;52.604;13.318;2023-02-23T15:12:47;100623.22;;;9.03;100.00
57234;BME280;43090;52.604;13.318;2023-02-23T15:15:17;100621.94;;;9.08;100.00
57234;BME280;43090;52.604;13.318;2023-02-23T15:17:45;100621.78;;;8.97;100.00
57234;BME280;43090;52.604;13.318;2023-02-23T15:20:14;100622.44;;;9.00;100.00
57234;BME280;43090;52.604;13.318;2023-02-23T15:22:43;100614.03;;;9.07;100.00
57234;BME280;43090;52.604;13.318;2023-02-23T15:25:16;100618.94;;;9.00;100.00
57234;BME280;43090;52.604;13.318;2023-02-23T15:27:44;100613.28;;;9.05;100.00
57234;BME280;43090;52.604;13.318;2023-02-23T15:32:43;100618.16;;;8.85;100.00
57234;BME280;43090;52.604;13.318;2023-02-23T15:35:11;100621.41;;;8.76;100.00
57234;BME280;43090;52.604;13.318;2023-02-23T15:37:48;100619.13;;;8.97;100.00
57234;BME280;43090;52.604;13.318;2023-02-23T15:40:39;100621.41;;;8.76;100.00
57234;BME280;43090;52.604;13.318;2023-02-23T15:43:32;100624.38;;;8.71;100.00
57234;BME280;43090;52.604;13.318;2023-02-23T16:07:26;100621.00;;;8.82;100.00
57234;BME280;43090;52.604;13.318;2023-02-23T16:17:02;100607.72;;;8.53;100.00
57234;BME280;43090;52.604;13.318;2023-02-23T16:19:40;100619.06;;;8.42;100.00
57234;BME280;43090;52.604;13.318;2023-02-23T16:22:16;100617.69;;;8.22;100.00
57234;BME280;43090;52.604;13.318;2023-02-23T16:24:46;100618.81;;;8.32;100.00
57234;BME280;43090;52.604;13.318;2023-02-23T16:27:18;100615.09;;;8.35;100.00
57234;BME280;43090;52.604;13.318;2023-02-23T16:29:54;100617.19;;;8.30;100.00
57234;BME280;43090;52.604;13.318;2023-02-23T16:32:21;100610.25;;;7.98;100.00
57234;BME280;43090;52.604;13.318;2023-02-23T16:38:11;100616.81;;;8.22;100.00
57234;BME280;43090;52.604;13.318;2023-02-23T16:40:39;100607.59;;;8.13;100.00
57234;BME280;43090;52.604;13.318;2023-02-23T16:43:06;100616.94;;;8.06;100.00
57234;BME280;43090;52.604;13.318;2023-02-23T16:45:33;100619.19;;;8.26;100.00
57234;BME280;43090;52.604;13.318;2023-02-23T16:48:00;100616.38;;;8.00;100.00
57234;BME280;43090;52.604;13.318;2023-02-23T16:50:27;100614.81;;;8.11;100.00
57234;BME280;43090;52.604;13.318;2023-02-23T16:52:54;100613.88;;;8.12;100.00
57234;BME280;43090;52.604;13.318;2023-02-23T16:55:24;100616.44;;;8.13;100.00
57234;BME280;43090;52.604;13.318;2023-02-23T16:58:01;100621.69;;;8.00;100.00
57234;BME280;43090;52.604;13.318;2023-02-23T17:00:52;100621.75;;;8.13;100.00
57234;BME280;43090;52.604;13.318;2023-02-23T17:03:27;100618.53;;;8.08;100.00
57234;BME280;43090;52.604;13.318;2023-02-23T17:23:56;100621.78;;;7.70;100.00
57234;BME280;43090;52.604;13.318;2023-02-23T17:27:08;100613.59;;;7.88;100.00
57234;BME280;43090;52.604;13.318;2023-02-23T17:33:17;100621.69;;;7.86;100.00
57234;BME280;43090;52.604;13.318;2023-02-23T17:35:44;100612.25;;;7.95;100.00
57234;BME280;43090;52.604;13.318;2023-02-23T17:38:11;100616.53;;;7.83;100.00
57234;BME280;43090;52.604;13.318;2023-02-23T17:40:38;100617.03;;;7.75;100.00
57234;BME280;43090;52.604;13.318;2023-02-23T17:43:07;100614.66;;;7.85;100.00
57234;BME280;43090;52.604;13.318;2023-02-23T17:45:43;100609.09;;;7.74;100.00
57234;BME280;43090;52.604;13.318;2023-02-23T17:48:13;100607.13;;;7.77;100.00
57234;BME280;43090;52.604;13.318;2023-02-23T17:50:40;100614.63;;;7.71;100.00
57234;BME280;43090;52.604;13.318;2023-02-23T17:53:39;100613.28;;;7.78;100.00
57234;BME280;43090;52.604;13.318;2023-02-23T17:56:11;100614.16;;;7.78;100.00
57234;BME280;43090;52.604;13.318;2023-02-23T17:58:38;100610.06;;;7.87;100.00
57234;BME280;43090;52.604;13.318;2023-02-23T18:01:09;100608.47;;;7.84;100.00
57234;BME280;43090;52.604;13.318;2023-02-23T18:03:36;100608.72;;;7.80;100.00
57234;BME280;43090;52.604;13.318;2023-02-23T18:06:15;100609.88;;;7.76;100.00
57234;BME280;43090;52.604;13.318;2023-02-23T18:11:54;100603.59;;;7.91;100.00
57234;BME280;43090;52.604;13.318;2023-02-23T18:14:24;100604.66;;;7.89;100.00